Time;durP1;ratioP1;P1;durP2;ratioP2;P2;SDS_P1;SDS_P2;PMS_P1;PMS_P2;Temp;Humidity;BMP_temperature;BMP_pressure;BME280_temperature;BME280_humidity;BME280_pressure;Samples;Min_cycle;Max_cycle;Signal;HPM_P1;HPM_P2
2022/10/20 00:00:41;;;;;;;18.98;14.25;;;;;;;8.40;100.00;101511.47;6273360;22;19999;-81
2022/10/20 00:03:07;;;;;;;18.50;14.57;;;;;;;8.42;100.00;101492.84;6272467;22;20104;-80
2022/10/20 00:05:32;;;;;;;18.83;14.13;;;;;;;8.39;100.00;101487.63;6273360;22;20019;-80
2022/10/20 00:07:57;;;;;;;19.25;15.23;;;;;;;8.32;100.00;101471.00;6277612;22;20018;-80
2022/10/20 00:10:22;;;;;;;22.05;15.82;;;;;;;8.32;100.00;101471.00;6294581;22;20034;-81
2022/10/20 00:12:48;;;;;;;18.65;14.85;;;;;;;8.29;100.00;101479.06;6298291;22;20011;-81
2022/10/20 00:15:13;;;;;;;20.33;15.77;;;;;;;8.30;100.00;101485.22;6289893;22;19994;-81
2022/10/20 00:17:38;;;;;;;20.80;14.93;;;;;;;8.30;100.00;101485.22;6275363;22;20000;-82
2022/10/20 00:20:04;;;;;;;18.45;14.77;;;;;;;8.30;100.00;101478.13;6271035;22;20004;-82
2022/10/20 00:22:30;;;;;;;24.13;16.83;;;;;;;8.35;100.00;101480.66;6272544;22;20011;-81
2022/10/20 00:24:56;;;;;;;20.98;15.95;;;;;;;8.38;100.00;101480.59;6272272;22;20027;-82
2022/10/20 00:27:21;;;;;;;22.25;16.73;;;;;;;8.39;100.00;101477.88;6272630;22;20401;-82
2022/10/20 00:29:47;;;;;;;19.77;15.65;;;;;;;8.41;100.00;101476.06;6272524;22;20004;-81
2022/10/20 00:32:12;;;;;;;22.98;17.40;;;;;;;8.35;100.00;101459.41;6272424;22;20006;-82
2022/10/20 00:34:38;;;;;;;21.35;17.25;;;;;;;8.36;100.00;101462.03;6272041;22;20004;-81
2022/10/20 00:37:03;;;;;;;25.55;17.40;;;;;;;8.42;100.00;101468.97;6271076;22;20031;-81
2022/10/20 00:39:29;;;;;;;26.35;18.02;;;;;;;8.42;100.00;101459.22;6269985;22;20008;-82
2022/10/20 00:41:55;;;;;;;23.60;18.08;;;;;;;8.38;100.00;101443.44;6272642;22;20007;-81
2022/10/20 00:44:47;;;;;;;22.40;17.13;;;;;;;8.44;100.00;101454.75;6270494;22;20008;-81
2022/10/20 00:47:18;;;;;;;22.17;17.25;;;;;;;8.42;100.00;101445.09;6270507;22;20004;-81
2022/10/20 00:49:43;;;;;;;22.40;17.20;;;;;;;8.39;100.00;101446.03;6270092;22;20000;-81
2022/10/20 00:52:09;;;;;;;23.80;17.92;;;;;;;8.41;100.00;101444.22;6269881;22;20437;-79
2022/10/20 00:54:35;;;;;;;26.38;18.05;;;;;;;8.45;100.00;101440.56;6270807;22;20383;-81
2022/10/20 00:57:00;;;;;;;25.02;18.75;;;;;;;8.50;100.00;101436.88;6268741;22;20031;-81
2022/10/20 00:59:32;;;;;;;23.77;17.75;;;;;;;8.46;100.00;101436.97;6268088;22;20051;-81
2022/10/20 01:01:59;;;;;;;22.08;16.50;;;;;;;8.40;100.00;101445.16;6269817;22;20000;-81
2022/10/20 01:04:28;;;;;;;23.50;18.23;;;;;;;8.42;100.00;101443.31;6270093;22;20000;-80
2022/10/20 01:06:53;;;;;;;23.02;18.38;;;;;;;8.40;100.00;101442.50;6269584;22;20058;-82
2022/10/20 01:09:18;;;;;;;25.77;18.00;;;;;;;8.42;100.00;101437.13;6268577;22;20476;-81
2022/10/20 01:11:57;;;;;;;24.48;18.02;;;;;;;8.40;100.00;101425.69;6267474;22;19999;-82
2022/10/20 01:14:53;;;;;;;25.13;19.23;;;;;;;8.39;100.00;101413.34;6268841;22;20008;-81
2022/10/20 01:17:40;;;;;;;26.10;18.92;;;;;;;8.37;100.00;101404.59;6267533;22;20069;-80
2022/10/20 01:20:27;;;;;;;27.25;18.40;;;;;;;8.39;100.00;101400.94;6269803;22;20003;-82
2022/10/20 01:23:23;;;;;;;24.90;19.50;;;;;;;8.37;100.00;101393.97;6270314;22;20006;-82
2022/10/20 01:26:12;;;;;;;28.42;20.40;;;;;;;8.38;100.00;101385.97;6270947;22;20003;-82
2022/10/20 01:29:04;;;;;;;27.65;20.10;;;;;;;8.41;100.00;101380.56;6270414;22;20011;-82
2022/10/20 01:31:44;;;;;;;30.25;20.80;;;;;;;8.39;100.00;101371.78;6270780;22;20422;-80
2022/10/20 01:34:45;;;;;;;31.70;20.15;;;;;;;8.40;100.00;101367.31;6270286;22;20008;-80
2022/10/20 01:37:34;;;;;;;29.05;21.10;;;;;;;8.39;100.00;101361.16;6269232;22;20023;-81
2022/10/20 01:40:16;;;;;;;29.80;21.10;;;;;;;8.37;100.00;101368.31;6269912;22;20035;-81
2022/10/20 01:42:43;;;;;;;29.50;21.17;;;;;;;8.39;100.00;101363.81;6271122;22;20065;-81
2022/10/20 01:45:12;;;;;;;27.60;20.92;;;;;;;8.39;100.00;101361.16;6269586;22;20010;-82
2022/10/20 01:47:38;;;;;;;30.65;21.80;;;;;;;8.45;100.00;101368.06;6269794;22;20157;-82
2022/10/20 01:50:06;;;;;;;35.63;23.38;;;;;;;8.50;100.00;101371.44;6268977;22;20327;-81
2022/10/20 01:52:31;;;;;;;30.63;22.50;;;;;;;8.52;100.00;101369.56;6271126;22;20003;-82
2022/10/20 01:54:56;;;;;;;31.55;21.98;;;;;;;8.57;100.00;101370.31;6268773;22;20015;-82
2022/10/20 01:58:02;;;;;;;32.50;22.90;;;;;;;8.57;100.00;101367.66;6269449;22;20057;-80
2022/10/20 02:00:27;;;;;;;30.50;22.27;;;;;;;8.54;100.00;101356.28;6262485;22;20076;-81
2022/10/20 02:03:11;;;;;;;31.13;22.70;;;;;;;8.60;100.00;101369.31;6272196;22;20004;-80
2022/10/20 02:05:44;;;;;;;;;;;;;;;8.56;100.00;101365.03;6272991;22;20026;-80
2022/10/20 02:08:16;;;;;;;31.50;22.83;;;;;;;8.54;100.00;101358.94;6273117;22;19935;-80
2022/10/20 02:10:48;;;;;;;34.03;22.67;;;;;;;8.52;100.00;101358.09;6274260;22;20008;-81
2022/10/20 02:13:16;;;;;;;32.85;23.48;;;;;;;8.55;100.00;101360.66;6274852;22;20068;-81
2022/10/20 02:15:50;;;;;;;36.67;24.23;;;;;;;8.56;100.00;101355.28;6274683;22;20012;-82
2022/10/20 02:18:18;;;;;;;;;;;;;;;8.53;100.00;101359.81;6275112;22;20086;-81
2022/10/20 02:20:47;;;;;;;32.33;23.55;;;;;;;8.61;100.00;101347.16;6273981;22;19985;-80
2022/10/20 02:23:13;;;;;;;36.10;24.30;;;;;;;8.57;100.00;101338.47;6270431;22;20440;-81
2022/10/20 02:25:39;;;;;;;34.40;23.48;;;;;;;8.55;100.00;101328.81;6268710;22;20003;-81
2022/10/20 02:28:12;;;;;;;34.33;24.77;;;;;;;8.60;100.00;101338.34;6268794;22;20008;-82
2022/10/20 02:30:40;;;;;;;34.55;24.23;;;;;;;8.57;100.00;101333.16;6270386;22;20145;-82
2022/10/20 02:33:06;;;;;;;31.48;23.30;;;;;;;8.54;100.00;101327.94;6269936;22;20011;-82
2022/10/20 02:35:32;;;;;;;34.60;24.25;;;;;;;8.56;100.00;101306.66;6270123;22;20322;-81
2022/10/20 02:37:58;;;;;;;34.90;25.23;;;;;;;8.57;100.00;101301.31;6269244;22;20010;-81
2022/10/20 02:40:24;;;;;;;33.30;23.52;;;;;;;8.53;100.00;101291.72;6269701;22;20371;-82
2022/10/20 02:42:49;;;;;;;35.40;24.90;;;;;;;8.51;100.00;101282.94;6270214;22;19999;-81
2022/10/20 02:45:15;;;;;;;33.10;25.60;;;;;;;8.51;100.00;101282.09;6269195;22;20034;-81
2022/10/20 02:47:40;;;;;;;35.75;24.83;;;;;;;8.53;100.00;101280.22;6268742;22;20053;-81
2022/10/20 02:50:07;;;;;;;38.17;25.42;;;;;;;8.54;100.00;101280.19;6270428;22;20106;-82
2022/10/20 02:52:32;;;;;;;38.22;25.83;;;;;;;8.57;100.00;101271.25;6288946;22;20014;-81
2022/10/20 02:54:58;;;;;;;37.60;27.25;;;;;;;8.65;100.00;101269.19;6286809;22;20008;-80
2022/10/20 02:57:23;;;;;;;41.17;27.00;;;;;;;8.61;100.00;101252.53;6280305;22;20302;-80
2022/10/20 02:59:48;;;;;;;35.38;25.40;;;;;;;8.59;100.00;101249.06;6277010;22;20090;-82
2022/10/20 03:02:13;;;;;;;38.13;26.63;;;;;;;8.66;100.00;101250.56;6269694;22;20034;-81
2022/10/20 03:04:39;;;;;;;37.17;27.05;;;;;;;8.72;100.00;101254.78;6271751;22;20057;-81
2022/10/20 03:07:04;;;;;;;38.90;26.63;;;;;;;8.68;100.00;101237.22;6271255;22;20008;-81
2022/10/20 03:09:29;;;;;;;36.92;26.55;;;;;;;8.66;100.00;101217.88;6273529;22;20006;-80
2022/10/20 03:11:55;;;;;;;36.70;25.10;;;;;;;8.65;100.00;101229.38;6272978;22;20003;-81
2022/10/20 03:14:20;;;;;;;37.65;26.52;;;;;;;8.71;100.00;101237.13;6273815;22;20725;-81
2022/10/20 03:16:45;;;;;;;42.33;27.85;;;;;;;8.79;100.00;101221.78;6270846;22;20014;-82
2022/10/20 03:19:11;;;;;;;34.65;25.35;;;;;;;8.78;100.00;101220.06;6270303;22;20323;-81
2022/10/20 03:21:36;;;;;;;40.25;28.05;;;;;;;8.84;100.00;101224.25;6270297;22;20007;-82
2022/10/20 03:24:01;;;;;;;37.55;26.50;;;;;;;8.83;100.00;101218.09;6271750;22;20421;-83
2022/10/20 03:26:27;;;;;;;40.17;27.65;;;;;;;8.88;100.00;101210.81;6271817;22;20004;-82
2022/10/20 03:28:52;;;;;;;37.33;27.05;;;;;;;8.93;100.00;101218.59;6271617;22;20345;-81
2022/10/20 03:31:17;;;;;;;42.45;27.73;;;;;;;8.94;100.00;101210.56;6270381;22;20023;-82
2022/10/20 03:33:43;;;;;;;38.92;26.45;;;;;;;8.96;100.00;101208.75;6272133;22;20008;-81
2022/10/20 03:36:08;;;;;;;41.20;27.50;;;;;;;9.03;100.00;101200.53;6270886;22;20003;-83
2022/10/20 03:38:33;;;;;;;39.33;26.10;;;;;;;9.04;100.00;101202.28;6270870;22;20010;-80
2022/10/20 03:40:59;;;;;;;37.35;26.48;;;;;;;9.01;100.00;101191.75;6273167;22;20445;-82
2022/10/20 03:43:24;;;;;;;33.40;23.88;;;;;;;9.08;100.00;101209.19;6272003;22;20012;-81
2022/10/20 03:45:50;;;;;;;34.88;24.65;;;;;;;9.13;100.00;101205.44;6271885;22;20066;-82
2022/10/20 03:48:15;;;;;;;34.72;25.23;;;;;;;9.12;100.00;101202.84;6272117;22;20015;-81
2022/10/20 03:50:41;;;;;;;34.17;24.88;;;;;;;9.15;100.00;101194.72;6272934;22;20094;-81
2022/10/20 03:53:07;;;;;;;31.75;24.50;;;;;;;9.12;100.00;101182.47;6270716;22;20010;-81
2022/10/20 03:55:33;;;;;;;37.40;25.27;;;;;;;9.12;100.00;101184.25;6273047;22;20011;-82
2022/10/20 03:57:58;;;;;;;34.38;25.02;;;;;;;9.14;100.00;101179.72;6272467;22;20099;-81
2022/10/20 04:00:24;;;;;;;33.92;25.20;;;;;;;9.16;100.00;101176.09;6272396;22;20062;-82
2022/10/20 04:02:49;;;;;;;35.80;25.83;;;;;;;9.21;100.00;101182.09;6273620;22;20057;-81
2022/10/20 04:05:19;;;;;;;32.42;25.25;;;;;;;9.19;100.00;101181.28;6273156;22;20371;-80
2022/10/20 04:07:45;;;;;;;32.60;24.60;;;;;;;9.24;100.00;101189.09;6272104;22;20018;-83
2022/10/20 04:10:12;;;;;;;35.08;25.55;;;;;;;9.22;100.00;101183.81;6272726;22;20421;-81
2022/10/20 04:12:37;;;;;;;33.78;24.50;;;;;;;9.26;100.00;101187.22;6272262;22;20008;-83
2022/10/20 04:15:04;;;;;;;35.25;24.85;;;;;;;9.21;100.00;101183.88;6272089;22;20011;-82
2022/10/20 04:17:30;;;;;;;30.90;24.17;;;;;;;9.17;100.00;101175.16;6270825;22;20004;-82
2022/10/20 04:19:55;;;;;;;31.08;24.23;;;;;;;9.21;100.00;101167.94;6271380;22;20402;-81
2022/10/20 04:22:20;;;;;;;31.92;23.42;;;;;;;9.25;100.00;101171.34;6272204;22;20011;-81
2022/10/20 04:24:46;;;;;;;32.67;24.27;;;;;;;9.25;100.00;101156.28;6274162;22;20012;-80
2022/10/20 04:27:11;;;;;;;32.47;23.65;;;;;;;9.31;100.00;101163.97;6268913;22;20305;-81
2022/10/20 04:29:36;;;;;;;32.35;22.73;;;;;;;9.32;100.00;101155.13;6271430;22;20004;-81
2022/10/20 04:32:02;;;;;;;33.70;24.15;;;;;;;9.32;100.00;101148.91;6271613;22;20437;-81
2022/10/20 04:34:27;;;;;;;32.33;24.15;;;;;;;9.37;100.00;101153.13;6272025;22;20004;-82
2022/10/20 04:36:52;;;;;;;29.70;22.80;;;;;;;9.34;100.00;101133.78;6271906;22;20106;-82
2022/10/20 04:39:18;;;;;;;33.80;23.70;;;;;;;9.39;100.00;101132.66;6272909;22;20428;-82
2022/10/20 04:41:43;;;;;;;30.55;23.65;;;;;;;9.41;100.00;101130.81;6272727;22;20088;-82
2022/10/20 04:44:08;;;;;;;30.30;22.63;;;;;;;9.43;100.00;101136.91;6272458;22;20083;-82
2022/10/20 04:46:34;;;;;;;30.83;23.02;;;;;;;9.43;100.00;101147.53;6272177;22;20014;-82
2022/10/20 04:48:59;;;;;;;31.85;23.45;;;;;;;9.43;100.00;101128.09;6273846;22;20031;-82
2022/10/20 04:51:24;;;;;;;30.35;23.95;;;;;;;9.43;100.00;101115.66;6273743;22;20004;-81
2022/10/20 04:53:49;;;;;;;32.05;23.77;;;;;;;9.43;100.00;101105.03;6272867;22;20417;-81
2022/10/20 04:56:19;;;;;;;29.08;22.60;;;;;;;9.40;100.00;101105.16;6271104;22;20011;-82
2022/10/20 04:58:48;;;;;;;30.45;21.83;;;;;;;9.41;100.00;101098.94;6270444;22;20012;-83
2022/10/20 05:01:14;;;;;;;32.13;23.25;;;;;;;9.37;100.00;101096.47;6270420;22;20438;-82
2022/10/20 05:03:39;;;;;;;30.05;22.15;;;;;;;9.39;100.00;101099.91;6271148;22;20078;-82
2022/10/20 05:06:17;;;;;;;29.90;22.30;;;;;;;9.38;100.00;101114.13;6271948;22;20008;-82
2022/10/20 05:08:45;;;;;;;29.75;23.55;;;;;;;9.39;100.00;101106.09;6273209;22;20003;-83
2022/10/20 05:11:11;;;;;;;28.10;21.77;;;;;;;9.33;100.00;101111.69;6270360;22;20004;-81
2022/10/20 05:13:37;;;;;;;29.40;22.95;;;;;;;9.32;100.00;101119.69;6272287;22;20034;-81
2022/10/20 05:16:03;;;;;;;28.67;22.50;;;;;;;9.29;100.00;101103.91;6271408;22;20003;-80
2022/10/20 05:18:28;;;;;;;28.98;22.25;;;;;;;9.27;100.00;101095.97;6271377;22;20497;-82
2022/10/20 05:20:54;;;;;;;30.08;23.40;;;;;;;9.26;100.00;101096.91;6271990;22;20034;-80
2022/10/20 05:23:19;;;;;;;31.77;23.92;;;;;;;9.26;100.00;101066.84;6267167;22;20011;-83
2022/10/20 05:25:45;;;;;;;30.13;23.58;;;;;;;9.22;100.00;101058.13;6267187;22;20563;-83
2022/10/20 05:28:10;;;;;;;29.48;23.27;;;;;;;9.15;100.00;101088.50;6267008;22;20019;-82
2022/10/20 05:30:36;;;;;;;26.75;21.55;;;;;;;9.07;100.00;101093.25;6268239;22;20007;-81
2022/10/20 05:33:02;;;;;;;29.00;21.80;;;;;;;9.05;100.00;101100.44;6270390;22;20011;-81
2022/10/20 05:35:28;;;;;;;29.50;23.60;;;;;;;9.03;100.00;101108.47;6282985;22;20029;-81
2022/10/20 05:37:54;;;;;;;33.15;24.05;;;;;;;9.03;100.00;101108.47;6286557;22;20013;-81
2022/10/20 05:40:19;;;;;;;32.75;23.75;;;;;;;8.97;100.00;101104.25;6284413;22;20039;-82
2022/10/20 05:42:44;;;;;;;30.65;23.75;;;;;;;8.91;100.00;101099.22;6277257;22;20004;-82
2022/10/20 05:45:10;;;;;;;36.85;24.23;;;;;;;8.89;100.00;101084.25;6271303;22;20435;-81
2022/10/20 05:47:35;;;;;;;33.63;23.27;;;;;;;8.87;100.00;101091.44;6271390;22;20029;-81
2022/10/20 05:50:01;;;;;;;34.65;25.10;;;;;;;8.89;100.00;101094.88;6272321;22;20328;-82
2022/10/20 05:52:26;;;;;;;35.72;24.48;;;;;;;8.89;100.00;101098.41;6272422;22;20455;-82
2022/10/20 05:54:51;;;;;;;30.98;25.20;;;;;;;8.82;100.00;101082.78;6272622;22;20057;-82
2022/10/20 05:57:17;;;;;;;34.40;24.88;;;;;;;8.88;100.00;101093.16;6271461;22;20033;-82
2022/10/20 05:59:42;;;;;;;32.97;26.02;;;;;;;8.91;100.00;101093.03;6272811;22;20008;-82
2022/10/20 06:02:09;;;;;;;35.42;25.60;;;;;;;8.90;100.00;101091.28;6271598;22;20004;-80
2022/10/20 06:04:34;;;;;;;34.20;25.08;;;;;;;8.94;100.00;101093.75;6272229;22;20008;-81
2022/10/20 06:07:00;;;;;;;33.90;24.70;;;;;;;8.97;100.00;101091.00;6269382;22;20054;-81
2022/10/20 06:09:25;;;;;;;30.17;23.77;;;;;;;9.00;100.00;101091.81;6268160;22;20335;-82
2022/10/20 06:11:51;;;;;;;33.17;24.17;;;;;;;9.01;100.00;101085.56;6269873;22;20086;-81
2022/10/20 06:14:16;;;;;;;34.65;24.08;;;;;;;9.01;100.00;101085.56;6269506;22;20394;-81
2022/10/20 06:16:42;;;;;;;33.88;23.55;;;;;;;9.02;100.00;101089.94;6269114;22;20004;-83
2022/10/20 06:19:08;;;;;;;29.70;23.50;;;;;;;9.06;100.00;101100.38;6270207;22;20007;-81
2022/10/20 06:21:36;;;;;;;29.70;24.25;;;;;;;9.07;100.00;101104.78;6271021;22;20000;-81
2022/10/20 06:24:03;;;;;;;35.95;24.52;;;;;;;9.14;100.00;101116.00;6273031;22;20007;-81
2022/10/20 06:26:31;;;;;;;31.65;23.25;;;;;;;9.11;100.00;101119.66;6267334;22;20029;-82
2022/10/20 06:28:57;;;;;;;28.35;22.30;;;;;;;9.14;100.00;101116.00;6270362;22;20007;-81
2022/10/20 06:31:26;;;;;;;31.35;23.70;;;;;;;9.21;100.00;101106.88;6273030;22;20011;-79
2022/10/20 06:33:52;;;;;;;33.05;23.60;;;;;;;9.27;100.00;101100.44;6271995;22;20007;-81
2022/10/20 06:36:19;;;;;;;30.40;23.45;;;;;;;9.31;100.00;101089.59;6270575;22;20459;-82
2022/10/20 06:38:45;;;;;;;32.28;22.75;;;;;;;9.33;100.00;101078.94;6271075;22;20007;-83
2022/10/20 06:41:16;;;;;;;29.02;22.60;;;;;;;9.39;100.00;101089.28;6270588;22;19999;-82
2022/10/20 06:43:45;;;;;;;28.33;21.58;;;;;;;9.43;100.00;101090.91;6271227;22;20011;-83
2022/10/20 06:46:17;;;;;;;29.25;22.05;;;;;;;9.47;100.00;101082.72;6292996;22;20003;-83
2022/10/20 06:48:43;;;;;;;29.88;20.73;;;;;;;9.51;100.00;101083.47;6269057;22;20000;-84
2022/10/20 06:51:12;;;;;;;29.73;21.48;;;;;;;9.47;100.00;101071.22;6268696;22;20008;-81
2022/10/20 06:53:38;;;;;;;30.42;22.98;;;;;;;9.57;100.00;101077.00;6268461;22;20394;-81
2022/10/20 06:56:10;;;;;;;31.60;21.73;;;;;;;9.62;100.00;101081.22;6267835;22;20475;-82
2022/10/20 06:58:37;;;;;;;26.90;21.25;;;;;;;9.66;100.00;101071.31;6269524;22;20015;-81
2022/10/20 07:01:11;;;;;;;26.85;20.88;;;;;;;9.71;100.00;101070.19;6269277;22;20075;-81
2022/10/20 07:03:37;;;;;;;26.80;21.23;;;;;;;9.73;100.00;101052.34;6270374;22;20011;-82
2022/10/20 07:06:04;;;;;;;25.73;21.00;;;;;;;9.81;100.00;101053.81;6267272;22;20008;-81
2022/10/20 07:08:31;;;;;;;23.00;20.40;;;;;;;9.85;100.00;101066.91;6270526;22;20003;-81
2022/10/20 07:11:21;;;;;;;28.63;19.95;;;;;;;9.91;100.00;101065.78;6267446;22;20061;-81
2022/10/20 07:13:48;;;;;;;28.00;21.13;;;;;;;9.94;100.00;101074.47;6263271;22;20098;-81
2022/10/20 07:16:17;;;;;;;25.33;19.23;;;;;;;10.00;100.00;101081.34;6269887;22;20000;-81
2022/10/20 07:18:43;;;;;;;25.35;20.15;;;;;;;10.03;100.00;101075.00;6271134;22;20363;-83
2022/10/20 07:21:12;;;;;;;25.92;20.08;;;;;;;10.11;100.00;101083.50;6270120;22;20422;-82
2022/10/20 07:23:37;;;;;;;24.08;19.23;;;;;;;10.16;100.00;101077.06;6269792;22;20023;-81
2022/10/20 07:26:30;;;;;;;24.83;19.10;;;;;;;10.20;100.00;101078.63;6268758;22;20054;-81
2022/10/20 07:28:58;;;;;;;24.92;17.83;;;;;;;10.28;100.00;101080.09;6263995;22;20012;-81
2022/10/20 07:31:26;;;;;;;26.88;19.90;;;;;;;10.34;100.00;101070.06;6270720;22;20061;-81
2022/10/20 07:33:52;;;;;;;24.63;18.05;;;;;;;10.35;100.00;101069.09;6270416;22;20434;-81
2022/10/20 07:36:20;;;;;;;23.98;18.17;;;;;;;10.40;100.00;101072.41;6271095;22;20042;-81
2022/10/20 07:38:46;;;;;;;26.77;18.52;;;;;;;10.44;100.00;101079.31;6272599;22;19995;-81
2022/10/20 07:41:12;;;;;;;21.77;18.05;;;;;;;10.39;100.00;101060.06;6273169;22;20618;-82
2022/10/20 07:43:38;;;;;;;22.92;18.73;;;;;;;10.49;100.00;101076.44;6273321;22;20004;-82
2022/10/20 07:46:05;;;;;;;25.73;19.58;;;;;;;10.51;100.00;101077.25;6271216;22;20365;-81
2022/10/20 07:48:32;;;;;;;24.85;18.10;;;;;;;10.54;100.00;101070.94;6272611;22;20082;-81
2022/10/20 07:51:15;;;;;;;25.65;18.35;;;;;;;10.59;100.00;101074.22;6272654;22;20425;-80
2022/10/20 07:53:41;;;;;;;24.48;18.77;;;;;;;10.62;100.00;101074.09;6273379;22;19996;-81
2022/10/20 07:56:07;;;;;;;23.40;17.48;;;;;;;10.65;100.00;101068.59;6272640;22;20022;-82
2022/10/20 07:58:33;;;;;;;27.38;18.65;;;;;;;10.73;100.00;101082.41;6272670;22;20047;-81
2022/10/20 08:00:58;;;;;;;23.02;18.33;;;;;;;10.83;100.00;101080.19;6273459;22;20015;-82
2022/10/20 08:03:23;;;;;;;23.52;18.50;;;;;;;11.00;100.00;101084.69;6270498;22;20540;-81
2022/10/20 08:05:49;;;;;;;21.73;18.23;;;;;;;11.12;100.00;101076.97;6269973;22;20010;-81
2022/10/20 08:08:14;;;;;;;20.63;17.67;;;;;;;11.24;100.00;101072.81;6269790;22;20030;-81
2022/10/20 08:10:40;;;;;;;22.52;17.85;;;;;;;11.33;100.00;101064.38;6271586;22;20035;-81
2022/10/20 08:13:05;;;;;;;20.80;17.65;;;;;;;11.37;100.00;101073.06;6271829;22;20383;-82
2022/10/20 08:15:31;;;;;;;19.17;17.08;;;;;;;11.46;100.00;101084.13;6270423;22;20003;-81
2022/10/20 08:17:56;;;;;;;22.73;17.02;;;;;;;11.56;100.00;101073.84;6291951;22;20012;-81
2022/10/20 08:20:21;;;;;;;20.52;17.23;;;;;;;11.56;100.00;101068.53;6289759;22;20820;-81
2022/10/20 08:22:46;;;;;;;20.75;16.85;;;;;;;11.64;100.00;101069.00;6281428;22;20004;-81
2022/10/20 08:25:13;;;;;;;18.88;16.65;;;;;;;11.69;100.00;101055.41;6278092;22;20007;-81
2022/10/20 08:27:39;;;;;;;22.83;17.42;;;;;;;11.77;100.00;101055.03;6271496;22;20008;-81
2022/10/20 08:30:04;;;;;;;20.00;16.73;;;;;;;11.75;100.00;101051.59;6274495;22;20022;-83
2022/10/20 08:32:30;;;;;;;19.13;15.82;;;;;;;11.78;100.00;101057.59;6272575;22;20033;-83
2022/10/20 08:34:55;;;;;;;20.90;16.73;;;;;;;11.75;100.00;101055.13;6270726;22;19999;-83
2022/10/20 08:37:20;;;;;;;20.85;17.00;;;;;;;11.82;100.00;101069.84;6270258;22;20405;-82
2022/10/20 08:39:46;;;;;;;20.02;15.82;;;;;;;11.87;100.00;101069.63;6273924;22;20042;-82
2022/10/20 08:42:11;;;;;;;19.13;15.98;;;;;;;11.99;100.00;101060.97;6272798;22;19999;-82
2022/10/20 08:44:40;;;;;;;22.98;16.48;;;;;;;12.15;100.00;101064.53;6270351;22;20019;-83
2022/10/20 08:47:18;;;;;;;18.08;16.17;;;;;;;12.39;99.49;101070.38;6270922;22;20000;-82
2022/10/20 08:49:44;;;;;;;17.33;15.15;;;;;;;12.64;97.69;101072.53;6271533;22;19995;-83
2022/10/20 08:52:14;;;;;;;18.15;14.55;;;;;;;12.82;96.26;101067.09;6270899;22;20000;-82
2022/10/20 08:54:39;;;;;;;17.88;15.15;;;;;;;13.02;94.48;101057.97;6269864;22;20042;-82
2022/10/20 08:57:30;;;;;;;17.35;14.32;;;;;;;13.21;94.66;101042.59;6269770;22;19999;-82
2022/10/20 09:00:00;;;;;;;19.30;14.02;;;;;;;13.32;93.62;101040.16;6270434;22;20083;-83
2022/10/20 09:02:31;;;;;;;16.73;13.48;;;;;;;13.37;92.16;101042.56;6268902;22;20094;-81
2022/10/20 09:04:58;;;;;;;16.92;13.93;;;;;;;13.32;92.68;101039.31;6267117;22;20333;-82
2022/10/20 09:07:28;;;;;;;18.13;13.77;;;;;;;13.24;92.81;101045.09;6269909;22;20083;-80
2022/10/20 09:10:10;;;;;;;15.82;13.43;;;;;;;13.07;92.89;101054.06;6270921;22;20035;-81
2022/10/20 09:12:39;;;;;;;15.98;13.82;;;;;;;12.88;93.39;101053.41;6270597;22;20087;-81
2022/10/20 09:15:04;;;;;;;16.98;13.75;;;;;;;12.74;94.50;101056.84;6269881;22;20078;-81
2022/10/20 09:17:30;;;;;;;16.42;14.32;;;;;;;12.69;95.34;101053.59;6271486;22;20008;-82
2022/10/20 09:19:58;;;;;;;19.38;14.48;;;;;;;12.65;96.16;101047.56;6271049;22;20010;-82
2022/10/20 09:22:26;;;;;;;17.60;14.60;;;;;;;12.64;96.54;101047.66;6270785;22;20000;-82
2022/10/20 09:24:55;;;;;;;17.00;13.88;;;;;;;12.62;96.17;101046.84;6270588;22;20079;-82
2022/10/20 09:27:32;;;;;;;17.60;14.60;;;;;;;12.70;96.87;101039.28;6270981;22;20007;-81
2022/10/20 09:29:57;;;;;;;20.08;14.35;;;;;;;12.81;96.31;101044.88;6271187;22;20009;-82
2022/10/20 09:32:43;;;;;;;17.40;14.20;;;;;;;13.00;95.78;101055.38;6269075;22;20094;-81
2022/10/20 09:35:23;;;;;;;16.40;14.18;;;;;;;13.15;95.33;101058.97;6268090;22;20007;-80
2022/10/20 09:37:54;;;;;;;16.98;14.07;;;;;;;13.13;94.78;101043.03;6270805;22;20004;-82
2022/10/20 09:40:19;;;;;;;18.10;14.10;;;;;;;13.17;94.01;101041.91;6270698;22;20008;-82
2022/10/20 09:42:53;;;;;;;17.77;14.32;;;;;;;13.11;94.49;101046.72;6269371;22;20008;-81
2022/10/20 09:45:22;;;;;;;17.02;14.10;;;;;;;13.07;95.04;101045.19;6269142;22;20543;-81
2022/10/20 09:47:52;;;;;;;17.83;14.15;;;;;;;13.02;95.58;101037.44;6270177;22;20585;-81
2022/10/20 09:50:39;;;;;;;21.33;14.60;;;;;;;13.03;96.13;101019.59;6270363;22;20000;-83
2022/10/20 09:53:14;;;;;;;17.65;14.52;;;;;;;12.93;95.94;101036.16;6269353;22;20337;-82
2022/10/20 09:55:45;;;;;;;19.42;15.20;;;;;;;12.92;96.88;101038.94;6269809;22;19999;-83
2022/10/20 09:58:20;;;;;;;16.67;14.43;;;;;;;12.87;97.52;101044.50;6268580;22;20011;-82
2022/10/20 10:00:55;;;;;;;18.05;14.70;;;;;;;12.87;97.55;101041.84;6271732;22;20400;-82
2022/10/20 10:03:22;;;;;;;16.35;14.63;;;;;;;12.94;98.13;101037.88;6270193;22;20007;-82
2022/10/20 10:05:59;;;;;;;18.45;15.02;;;;;;;13.01;98.14;101049.09;6269730;22;20014;-81
2022/10/20 10:08:28;;;;;;;15.27;13.63;;;;;;;13.09;97.83;101046.84;6270989;22;20003;-83
2022/10/20 10:11:11;;;;;;;18.65;14.75;;;;;;;13.16;98.04;101044.66;6271735;22;20018;-82
2022/10/20 10:13:40;;;;;;;20.13;14.43;;;;;;;13.12;97.81;101049.31;6268798;22;20011;-83
2022/10/20 10:16:08;;;;;;;19.63;14.57;;;;;;;13.11;98.17;101042.25;6269896;22;20011;-83
2022/10/20 10:18:36;;;;;;;19.17;14.68;;;;;;;13.09;98.60;101059.34;6270348;22;20057;-82
2022/10/20 10:21:10;;;;;;;18.73;14.85;;;;;;;13.05;99.43;101026.59;6270919;22;20475;-84
2022/10/20 10:23:50;;;;;;;20.67;15.32;;;;;;;13.00;99.65;101022.44;6271381;22;20007;-82
2022/10/20 10:26:52;;;;;;;18.02;15.02;;;;;;;12.94;100.00;101021.00;6270266;22;20004;-84
2022/10/20 10:29:28;;;;;;;21.45;16.50;;;;;;;12.80;100.00;101023.59;6207460;23;20375;-84
2022/10/20 10:32:17;;;;;;;19.05;16.52;;;;;;;12.62;100.00;101023.72;6208562;23;20311;-83
2022/10/20 10:34:42;;;;;;;23.20;16.95;;;;;;;12.46;100.00;101017.50;6207908;23;20044;-84
2022/10/20 10:37:12;;;;;;;20.83;17.20;;;;;;;12.36;100.00;101017.13;6183141;23;20063;-84
2022/10/20 10:39:38;;;;;;;26.17;19.88;;;;;;;12.28;100.00;101019.38;6209314;23;20005;-83
2022/10/20 10:42:11;;;;;;;24.27;19.33;;;;;;;12.20;100.00;101014.44;6183307;23;20116;-83
2022/10/20 10:44:58;;;;;;;26.15;20.83;;;;;;;12.14;100.00;101013.94;6206974;23;20022;-82
2022/10/20 10:47:26;;;;;;;28.58;21.17;;;;;;;12.12;100.00;101024.72;6183618;23;20047;-84
2022/10/20 10:50:25;;;;;;;28.80;21.73;;;;;;;12.07;100.00;101026.75;6211156;23;20095;-85
2022/10/20 10:53:04;;;;;;;31.55;21.33;;;;;;;12.05;100.00;101023.31;6202363;23;20081;-85
2022/10/20 10:55:58;;;;;;;28.55;22.38;;;;;;;12.01;100.00;101021.75;6208037;23;20347;-86
2022/10/20 10:58:41;;;;;;;28.67;21.83;;;;;;;11.93;100.00;101016.81;6186391;23;20015;-85
2022/10/20 11:01:22;;;;;;;30.30;23.95;;;;;;;11.92;100.00;101017.78;6223650;23;20035;-86
2022/10/20 11:04:44;;;;;;;33.50;23.75;;;;;;;11.90;100.00;101024.13;6276361;22;20031;-87
2022/10/20 11:07:12;;;;;;;35.15;24.90;;;;;;;11.91;100.00;100994.72;6232600;23;20013;-92
2022/10/20 11:09:41;;;;;;;32.20;24.20;;;;;;;11.90;100.00;100997.44;6232896;23;20016;-85
2022/10/20 11:12:34;;;;;;;34.58;26.20;;;;;;;11.87;100.00;100994.94;6227897;23;20029;-93
2022/10/20 11:15:20;;;;;;;35.95;26.23;;;;;;;11.87;100.00;100987.84;6228133;23;20067;-92
2022/10/20 11:18:13;;;;;;;35.08;26.73;;;;;;;11.89;100.00;100988.59;6219554;23;20070;-94
2022/10/20 11:21:03;;;;;;;38.22;29.05;;;;;;;11.92;100.00;100991.09;6219889;23;20028;-92